sensor_id;sensor_type;location;lat;lon;timestamp;temperature;humidity
6480;DHT22;71753;48.772;9.148;2023-08-20T00:00:31;22.78;81.06
6480;DHT22;71753;48.772;9.148;2023-08-20T00:03:02;22.80;80.85
6480;DHT22;71753;48.772;9.148;2023-08-20T00:05:29;22.80;80.80
6480;DHT22;71753;48.772;9.148;2023-08-20T00:07:58;22.76;81.04
6480;DHT22;71753;48.772;9.148;2023-08-20T00:10:25;22.75;81.20
6480;DHT22;71753;48.772;9.148;2023-08-20T00:12:51;22.76;81.14
6480;DHT22;71753;48.772;9.148;2023-08-20T00:15:18;22.78;81.19
6480;DHT22;71753;48.772;9.148;2023-08-20T00:17:45;22.84;80.86
6480;DHT22;71753;48.772;9.148;2023-08-20T00:20:14;22.76;81.32
6480;DHT22;71753;48.772;9.148;2023-08-20T00:22:42;22.93;80.69
6480;DHT22;71753;48.772;9.148;2023-08-20T00:25:13;22.73;81.58
6480;DHT22;71753;48.772;9.148;2023-08-20T00:27:40;22.79;81.29
6480;DHT22;71753;48.772;9.148;2023-08-20T00:30:08;22.92;80.69
6480;DHT22;71753;48.772;9.148;2023-08-20T00:32:35;22.84;81.10
6480;DHT22;71753;48.772;9.148;2023-08-20T00:35:02;22.81;81.27
6480;DHT22;71753;48.772;9.148;2023-08-20T00:37:29;22.86;80.95
6480;DHT22;71753;48.772;9.148;2023-08-20T00:39:56;22.82;81.01
6480;DHT22;71753;48.772;9.148;2023-08-20T00:42:25;22.77;81.23
6480;DHT22;71753;48.772;9.148;2023-08-20T00:44:52;22.77;81.19
6480;DHT22;71753;48.772;9.148;2023-08-20T00:47:19;22.64;81.73
6480;DHT22;71753;48.772;9.148;2023-08-20T00:49:46;22.60;81.88
6480;DHT22;71753;48.772;9.148;2023-08-20T00:52:14;22.54;82.10
6480;DHT22;71753;48.772;9.148;2023-08-20T00:54:44;22.55;82.13
6480;DHT22;71753;48.772;9.148;2023-08-20T00:57:13;22.52;82.17
6480;DHT22;71753;48.772;9.148;2023-08-20T00:59:42;22.28;83.41
6480;DHT22;71753;48.772;9.148;2023-08-20T01:02:10;22.29;83.32
6480;DHT22;71753;48.772;9.148;2023-08-20T01:04:37;22.27;83.39
6480;DHT22;71753;48.772;9.148;2023-08-20T01:07:11;22.27;83.38
6480;DHT22;71753;48.772;9.148;2023-08-20T01:09:48;22.38;82.86
6480;DHT22;71753;48.772;9.148;2023-08-20T01:12:17;22.46;82.58
6480;DHT22;71753;48.772;9.148;2023-08-20T01:14:45;22.57;81.91
6480;DHT22;71753;48.772;9.148;2023-08-20T01:17:12;22.27;83.32
6480;DHT22;71753;48.772;9.148;2023-08-20T01:19:39;22.33;83.00
6480;DHT22;71753;48.772;9.148;2023-08-20T01:22:21;22.14;83.96
6480;DHT22;71753;48.772;9.148;2023-08-20T01:25:01;22.19;83.65
6480;DHT22;71753;48.772;9.148;2023-08-20T01:27:43;22.21;83.51
6480;DHT22;71753;48.772;9.148;2023-08-20T01:30:17;22.20;83.44
6480;DHT22;71753;48.772;9.148;2023-08-20T01:32:44;22.22;83.51
6480;DHT22;71753;48.772;9.148;2023-08-20T01:35:12;22.17;83.71
6480;DHT22;71753;48.772;9.148;2023-08-20T01:37:39;22.05;84.26
6480;DHT22;71753;48.772;9.148;2023-08-20T01:40:07;22.10;83.84
6480;DHT22;71753;48.772;9.148;2023-08-20T01:42:35;21.97;84.52
6480;DHT22;71753;48.772;9.148;2023-08-20T01:45:03;22.01;84.52
6480;DHT22;71753;48.772;9.148;2023-08-20T01:47:31;21.97;84.52
6480;DHT22;71753;48.772;9.148;2023-08-20T01:49:58;21.98;84.76
6480;DHT22;71753;48.772;9.148;2023-08-20T01:52:25;22.13;84.08
6480;DHT22;71753;48.772;9.148;2023-08-20T01:54:52;22.10;83.91
6480;DHT22;71753;48.772;9.148;2023-08-20T01:57:19;22.09;84.07
6480;DHT22;71753;48.772;9.148;2023-08-20T01:59:46;22.21;83.42
6480;DHT22;71753;48.772;9.148;2023-08-20T02:02:13;22.17;83.42
6480;DHT22;71753;48.772;9.148;2023-08-20T02:04:41;22.05;84.08
6480;DHT22;71753;48.772;9.148;2023-08-20T02:07:08;22.10;83.86
6480;DHT22;71753;48.772;9.148;2023-08-20T02:09:35;22.03;84.24
6480;DHT22;71753;48.772;9.148;2023-08-20T02:12:02;22.14;83.56
6480;DHT22;71753;48.772;9.148;2023-08-20T02:14:28;21.87;85.10
6480;DHT22;71753;48.772;9.148;2023-08-20T02:16:58;21.74;85.55
6480;DHT22;71753;48.772;9.148;2023-08-20T02:19:25;21.74;85.76
6480;DHT22;71753;48.772;9.148;2023-08-20T02:21:54;21.78;85.20
6480;DHT22;71753;48.772;9.148;2023-08-20T02:24:20;21.78;85.30
6480;DHT22;71753;48.772;9.148;2023-08-20T02:26:47;21.70;85.80
6480;DHT22;71753;48.772;9.148;2023-08-20T02:29:14;21.64;85.72
6480;DHT22;71753;48.772;9.148;2023-08-20T02:31:40;21.53;86.08
6480;DHT22;71753;48.772;9.148;2023-08-20T02:34:07;21.48;86.74
6480;DHT22;71753;48.772;9.148;2023-08-20T02:36:34;21.51;86.54
6480;DHT22;71753;48.772;9.148;2023-08-20T02:39:02;21.47;86.52
6480;DHT22;71753;48.772;9.148;2023-08-20T02:41:29;21.52;86.21
6480;DHT22;71753;48.772;9.148;2023-08-20T02:43:56;21.51;86.58
6480;DHT22;71753;48.772;9.148;2023-08-20T02:46:23;21.61;86.03
6480;DHT22;71753;48.772;9.148;2023-08-20T02:48:49;21.72;85.41
6480;DHT22;71753;48.772;9.148;2023-08-20T02:51:16;21.69;85.77
6480;DHT22;71753;48.772;9.148;2023-08-20T02:53:43;21.64;85.84
6480;DHT22;71753;48.772;9.148;2023-08-20T02:56:11;21.53;86.49
6480;DHT22;71753;48.772;9.148;2023-08-20T02:58:37;21.54;86.00
6480;DHT22;71753;48.772;9.148;2023-08-20T03:01:05;21.29;87.27
6480;DHT22;71753;48.772;9.148;2023-08-20T03:03:32;21.28;87.14
6480;DHT22;71753;48.772;9.148;2023-08-20T03:05:58;21.20;87.55
6480;DHT22;71753;48.772;9.148;2023-08-20T03:08:25;21.22;87.45
6480;DHT22;71753;48.772;9.148;2023-08-20T03:10:52;21.32;87.41
6480;DHT22;71753;48.772;9.148;2023-08-20T03:13:20;21.42;86.77
6480;DHT22;71753;48.772;9.148;2023-08-20T03:15:46;21.29;87.13
6480;DHT22;71753;48.772;9.148;2023-08-20T03:18:13;21.30;87.18
6480;DHT22;71753;48.772;9.148;2023-08-20T03:20:40;21.32;87.03
6480;DHT22;71753;48.772;9.148;2023-08-20T03:23:06;21.22;87.29
6480;DHT22;71753;48.772;9.148;2023-08-20T03:25:33;21.25;87.46
6480;DHT22;71753;48.772;9.148;2023-08-20T03:28:00;21.50;86.32
6480;DHT22;71753;48.772;9.148;2023-08-20T03:30:28;21.52;86.03
6480;DHT22;71753;48.772;9.148;2023-08-20T03:32:54;21.69;85.53
6480;DHT22;71753;48.772;9.148;2023-08-20T03:35:21;21.74;85.41
6480;DHT22;71753;48.772;9.148;2023-08-20T03:37:48;21.60;85.14
6480;DHT22;71753;48.772;9.148;2023-08-20T03:40:15;21.31;86.58
6480;DHT22;71753;48.772;9.148;2023-08-20T03:42:43;21.21;87.18
6480;DHT22;71753;48.772;9.148;2023-08-20T03:45:10;21.05;87.70
6480;DHT22;71753;48.772;9.148;2023-08-20T03:47:38;21.01;87.79
6480;DHT22;71753;48.772;9.148;2023-08-20T03:50:05;21.04;87.81
6480;DHT22;71753;48.772;9.148;2023-08-20T03:52:32;21.17;87.44
6480;DHT22;71753;48.772;9.148;2023-08-20T03:54:59;21.28;87.04
6480;DHT22;71753;48.772;9.148;2023-08-20T03:57:25;21.31;86.62
6480;DHT22;71753;48.772;9.148;2023-08-20T03:59:52;21.21;87.02
6480;DHT22;71753;48.772;9.148;2023-08-20T04:02:19;21.00;88.24
6480;DHT22;71753;48.772;9.148;2023-08-20T04:04:47;20.90;88.71
6480;DHT22;71753;48.772;9.148;2023-08-20T04:07:13;20.87;88.84
6480;DHT22;71753;48.772;9.148;2023-08-20T04:09:40;20.99;88.10
6480;DHT22;71753;48.772;9.148;2023-08-20T04:12:08;21.19;87.30
6480;DHT22;71753;48.772;9.148;2023-08-20T04:14:35;21.17;87.41
6480;DHT22;71753;48.772;9.148;2023-08-20T04:17:01;21.03;87.70
6480;DHT22;71753;48.772;9.148;2023-08-20T04:19:28;20.99;87.72
6480;DHT22;71753;48.772;9.148;2023-08-20T04:21:56;20.92;88.05
6480;DHT22;71753;48.772;9.148;2023-08-20T04:24:23;20.93;87.93
6480;DHT22;71753;48.772;9.148;2023-08-20T04:26:49;20.90;88.35
6480;DHT22;71753;48.772;9.148;2023-08-20T04:29:16;20.92;88.24
6480;DHT22;71753;48.772;9.148;2023-08-20T04:31:43;20.94;87.83
6480;DHT22;71753;48.772;9.148;2023-08-20T04:34:11;20.92;88.17
6480;DHT22;71753;48.772;9.148;2023-08-20T04:36:37;20.94;87.77
6480;DHT22;71753;48.772;9.148;2023-08-20T04:39:05;20.93;87.92
6480;DHT22;71753;48.772;9.148;2023-08-20T04:41:32;20.99;87.83
6480;DHT22;71753;48.772;9.148;2023-08-20T04:43:59;21.03;87.36
6480;DHT22;71753;48.772;9.148;2023-08-20T04:46:25;21.19;87.04
6480;DHT22;71753;48.772;9.148;2023-08-20T04:48:53;21.25;86.49
6480;DHT22;71753;48.772;9.148;2023-08-20T04:51:20;21.18;86.79
6480;DHT22;71753;48.772;9.148;2023-08-20T04:53:47;21.09;87.46
6480;DHT22;71753;48.772;9.148;2023-08-20T04:56:15;21.22;86.98
6480;DHT22;71753;48.772;9.148;2023-08-20T04:58:41;21.25;86.69
6480;DHT22;71753;48.772;9.148;2023-08-20T05:01:11;21.22;86.85
6480;DHT22;71753;48.772;9.148;2023-08-20T05:03:37;21.30;86.93
6480;DHT22;71753;48.772;9.148;2023-08-20T05:06:04;21.33;86.80
6480;DHT22;71753;48.772;9.148;2023-08-20T05:08:31;21.52;86.23
6480;DHT22;71753;48.772;9.148;2023-08-20T05:10:57;21.78;85.10
6480;DHT22;71753;48.772;9.148;2023-08-20T05:13:25;21.93;84.38
6480;DHT22;71753;48.772;9.148;2023-08-20T05:15:52;22.24;83.58
6480;DHT22;71753;48.772;9.148;2023-08-20T05:18:19;22.14;83.71
6480;DHT22;71753;48.772;9.148;2023-08-20T05:20:45;22.07;84.09
6480;DHT22;71753;48.772;9.148;2023-08-20T05:23:12;22.16;82.97
6480;DHT22;71753;48.772;9.148;2023-08-20T05:25:39;22.26;81.97
6480;DHT22;71753;48.772;9.148;2023-08-20T05:28:06;22.49;81.35
6480;DHT22;71753;48.772;9.148;2023-08-20T05:30:34;22.58;81.25
6480;DHT22;71753;48.772;9.148;2023-08-20T05:33:00;22.71;80.65
6480;DHT22;71753;48.772;9.148;2023-08-20T05:35:27;22.92;79.60
6480;DHT22;71753;48.772;9.148;2023-08-20T05:37:54;23.05;78.97
6480;DHT22;71753;48.772;9.148;2023-08-20T05:40:20;22.99;79.30
6480;DHT22;71753;48.772;9.148;2023-08-20T05:42:47;23.05;78.95
6480;DHT22;71753;48.772;9.148;2023-08-20T05:45:14;22.97;79.25
6480;DHT22;71753;48.772;9.148;2023-08-20T05:47:42;23.09;78.75
6480;DHT22;71753;48.772;9.148;2023-08-20T05:50:09;23.18;78.18
6480;DHT22;71753;48.772;9.148;2023-08-20T05:52:35;23.38;77.51
6480;DHT22;71753;48.772;9.148;2023-08-20T05:55:02;23.39;77.47
6480;DHT22;71753;48.772;9.148;2023-08-20T05:57:29;23.70;76.56
6480;DHT22;71753;48.772;9.148;2023-08-20T05:59:56;23.74;76.50
6480;DHT22;71753;48.772;9.148;2023-08-20T06:02:23;24.11;75.14
6480;DHT22;71753;48.772;9.148;2023-08-20T06:04:51;24.02;75.49
6480;DHT22;71753;48.772;9.148;2023-08-20T06:07:17;24.14;74.38
6480;DHT22;71753;48.772;9.148;2023-08-20T06:09:44;24.89;71.92
6480;DHT22;71753;48.772;9.148;2023-08-20T06:12:11;24.32;73.39
6480;DHT22;71753;48.772;9.148;2023-08-20T06:14:38;24.77;72.68
6480;DHT22;71753;48.772;9.148;2023-08-20T06:17:04;25.28;70.52
6480;DHT22;71753;48.772;9.148;2023-08-20T06:19:31;25.33;70.23
6480;DHT22;71753;48.772;9.148;2023-08-20T06:21:59;25.45;69.63
6480;DHT22;71753;48.772;9.148;2023-08-20T06:24:26;25.16;70.68
6480;DHT22;71753;48.772;9.148;2023-08-20T06:26:53;25.32;70.05
6480;DHT22;71753;48.772;9.148;2023-08-20T06:29:19;25.31;70.93
6480;DHT22;71753;48.772;9.148;2023-08-20T06:31:47;25.18;70.87
6480;DHT22;71753;48.772;9.148;2023-08-20T06:34:14;25.02;71.18
6480;DHT22;71753;48.772;9.148;2023-08-20T06:36:40;25.14;71.83
6480;DHT22;71753;48.772;9.148;2023-08-20T06:39:08;25.05;71.85
6480;DHT22;71753;48.772;9.148;2023-08-20T06:41:35;24.95;71.97
6480;DHT22;71753;48.772;9.148;2023-08-20T06:44:02;25.27;70.57
6480;DHT22;71753;48.772;9.148;2023-08-20T06:46:29;25.25;71.29
6480;DHT22;71753;48.772;9.148;2023-08-20T06:48:56;25.44;70.40
6480;DHT22;71753;48.772;9.148;2023-08-20T06:51:22;25.53;69.84
6480;DHT22;71753;48.772;9.148;2023-08-20T06:53:50;25.43;70.31
6480;DHT22;71753;48.772;9.148;2023-08-20T06:56:18;25.69;69.63
6480;DHT22;71753;48.772;9.148;2023-08-20T06:58:46;25.62;69.71
6480;DHT22;71753;48.772;9.148;2023-08-20T07:01:12;25.62;69.40
6480;DHT22;71753;48.772;9.148;2023-08-20T07:03:40;26.38;66.91
6480;DHT22;71753;48.772;9.148;2023-08-20T07:06:08;26.16;67.94
6480;DHT22;71753;48.772;9.148;2023-08-20T07:08:35;26.41;67.28
6480;DHT22;71753;48.772;9.148;2023-08-20T07:11:04;26.60;65.91
6480;DHT22;71753;48.772;9.148;2023-08-20T07:13:32;26.22;67.62
6480;DHT22;71753;48.772;9.148;2023-08-20T07:15:59;25.94;68.55
6480;DHT22;71753;48.772;9.148;2023-08-20T07:18:25;26.13;68.60
6480;DHT22;71753;48.772;9.148;2023-08-20T07:20:52;26.16;68.16
6480;DHT22;71753;48.772;9.148;2023-08-20T07:23:19;26.07;67.93
6480;DHT22;71753;48.772;9.148;2023-08-20T07:25:46;26.57;65.96
6480;DHT22;71753;48.772;9.148;2023-08-20T07:28:14;26.79;65.67
6480;DHT22;71753;48.772;9.148;2023-08-20T07:30:47;26.61;67.07
6480;DHT22;71753;48.772;9.148;2023-08-20T07:33:14;26.62;66.85
6480;DHT22;71753;48.772;9.148;2023-08-20T07:35:41;27.25;65.49
6480;DHT22;71753;48.772;9.148;2023-08-20T07:38:08;28.05;62.21
6480;DHT22;71753;48.772;9.148;2023-08-20T07:40:35;27.87;62.28
6480;DHT22;71753;48.772;9.148;2023-08-20T07:43:02;27.79;63.26
6480;DHT22;71753;48.772;9.148;2023-08-20T07:45:29;27.24;65.20
6480;DHT22;71753;48.772;9.148;2023-08-20T07:47:57;26.86;65.33
6480;DHT22;71753;48.772;9.148;2023-08-20T07:50:24;26.77;66.26
6480;DHT22;71753;48.772;9.148;2023-08-20T07:52:50;26.43;68.01
6480;DHT22;71753;48.772;9.148;2023-08-20T07:55:17;26.80;66.40
6480;DHT22;71753;48.772;9.148;2023-08-20T07:57:44;27.04;65.95
6480;DHT22;71753;48.772;9.148;2023-08-20T08:00:12;26.66;67.75
6480;DHT22;71753;48.772;9.148;2023-08-20T08:02:39;26.81;67.20
6480;DHT22;71753;48.772;9.148;2023-08-20T08:05:08;27.16;65.53
6480;DHT22;71753;48.772;9.148;2023-08-20T08:07:35;27.49;65.47
6480;DHT22;71753;48.772;9.148;2023-08-20T08:10:01;28.01;62.87
6480;DHT22;71753;48.772;9.148;2023-08-20T08:12:28;27.73;63.44
6480;DHT22;71753;48.772;9.148;2023-08-20T08:14:55;27.82;64.68
6480;DHT22;71753;48.772;9.148;2023-08-20T08:17:22;27.91;62.62
6480;DHT22;71753;48.772;9.148;2023-08-20T08:19:48;28.06;62.48
6480;DHT22;71753;48.772;9.148;2023-08-20T08:22:16;27.69;62.35
6480;DHT22;71753;48.772;9.148;2023-08-20T08:24:43;27.43;63.36
6480;DHT22;71753;48.772;9.148;2023-08-20T08:27:10;27.72;62.85
6480;DHT22;71753;48.772;9.148;2023-08-20T08:29:36;27.20;63.68
6480;DHT22;71753;48.772;9.148;2023-08-20T08:32:03;26.79;65.41
6480;DHT22;71753;48.772;9.148;2023-08-20T08:34:30;26.99;64.04
6480;DHT22;71753;48.772;9.148;2023-08-20T08:36:57;27.60;62.41
6480;DHT22;71753;48.772;9.148;2023-08-20T08:39:25;28.48;59.78
6480;DHT22;71753;48.772;9.148;2023-08-20T08:41:54;28.12;61.31
6480;DHT22;71753;48.772;9.148;2023-08-20T08:44:25;27.82;62.86
6480;DHT22;71753;48.772;9.148;2023-08-20T08:46:52;27.58;62.12
6480;DHT22;71753;48.772;9.148;2023-08-20T08:49:18;27.52;62.18
6480;DHT22;71753;48.772;9.148;2023-08-20T08:51:46;27.35;63.03
6480;DHT22;71753;48.772;9.148;2023-08-20T08:54:13;28.10;60.88
6480;DHT22;71753;48.772;9.148;2023-08-20T08:56:42;28.83;58.20
6480;DHT22;71753;48.772;9.148;2023-08-20T08:59:09;29.17;57.10
6480;DHT22;71753;48.772;9.148;2023-08-20T09:01:38;28.38;60.15
6480;DHT22;71753;48.772;9.148;2023-08-20T09:04:05;28.45;59.84
6480;DHT22;71753;48.772;9.148;2023-08-20T09:06:44;28.82;59.38
6480;DHT22;71753;48.772;9.148;2023-08-20T09:09:12;28.93;58.16
6480;DHT22;71753;48.772;9.148;2023-08-20T09:11:39;29.05;57.65
6480;DHT22;71753;48.772;9.148;2023-08-20T09:14:07;29.05;56.52
6480;DHT22;71753;48.772;9.148;2023-08-20T09:16:33;29.03;56.29
6480;DHT22;71753;48.772;9.148;2023-08-20T09:19:00;29.13;57.13
6480;DHT22;71753;48.772;9.148;2023-08-20T09:21:28;29.21;56.92
6480;DHT22;71753;48.772;9.148;2023-08-20T09:23:55;29.06;57.59
6480;DHT22;71753;48.772;9.148;2023-08-20T09:26:22;28.93;58.22
6480;DHT22;71753;48.772;9.148;2023-08-20T09:28:49;28.82;57.93
6480;DHT22;71753;48.772;9.148;2023-08-20T09:31:17;29.02;57.34
6480;DHT22;71753;48.772;9.148;2023-08-20T09:33:49;29.15;57.13
6480;DHT22;71753;48.772;9.148;2023-08-20T09:36:16;29.26;55.40
6480;DHT22;71753;48.772;9.148;2023-08-20T09:38:43;29.64;54.43
6480;DHT22;71753;48.772;9.148;2023-08-20T09:41:11;29.28;54.78
6480;DHT22;71753;48.772;9.148;2023-08-20T09:43:39;29.64;53.58
6480;DHT22;71753;48.772;9.148;2023-08-20T09:46:06;29.05;55.81
6480;DHT22;71753;48.772;9.148;2023-08-20T09:48:38;29.38;56.46
6480;DHT22;71753;48.772;9.148;2023-08-20T09:51:10;29.72;54.26
6480;DHT22;71753;48.772;9.148;2023-08-20T09:53:41;29.58;54.84
6480;DHT22;71753;48.772;9.148;2023-08-20T09:56:15;29.53;53.33
6480;DHT22;71753;48.772;9.148;2023-08-20T09:58:44;29.66;53.30
6480;DHT22;71753;48.772;9.148;2023-08-20T10:01:12;29.22;55.44
6480;DHT22;71753;48.772;9.148;2023-08-20T10:03:41;29.58;54.01
6480;DHT22;71753;48.772;9.148;2023-08-20T10:06:09;30.26;53.48
6480;DHT22;71753;48.772;9.148;2023-08-20T10:08:38;30.40;52.04
6480;DHT22;71753;48.772;9.148;2023-08-20T10:11:04;30.79;52.39
6480;DHT22;71753;48.772;9.148;2023-08-20T10:13:31;30.34;52.36
6480;DHT22;71753;48.772;9.148;2023-08-20T10:15:59;29.34;54.55
6480;DHT22;71753;48.772;9.148;2023-08-20T10:18:26;29.90;53.14
6480;DHT22;71753;48.772;9.148;2023-08-20T10:20:57;30.11;52.37
6480;DHT22;71753;48.772;9.148;2023-08-20T10:23:24;30.34;52.34
6480;DHT22;71753;48.772;9.148;2023-08-20T10:25:52;30.13;51.56
6480;DHT22;71753;48.772;9.148;2023-08-20T10:28:21;29.89;51.84
6480;DHT22;71753;48.772;9.148;2023-08-20T10:31:04;30.01;51.93
6480;DHT22;71753;48.772;9.148;2023-08-20T10:33:33;30.01;52.10
6480;DHT22;71753;48.772;9.148;2023-08-20T10:36:09;29.98;51.99
6480;DHT22;71753;48.772;9.148;2023-08-20T10:38:36;30.42;50.85
6480;DHT22;71753;48.772;9.148;2023-08-20T10:41:06;30.51;51.25
6480;DHT22;71753;48.772;9.148;2023-08-20T10:43:34;30.44;51.28
6480;DHT22;71753;48.772;9.148;2023-08-20T10:46:15;30.54;50.71
6480;DHT22;71753;48.772;9.148;2023-08-20T10:48:43;30.15;50.49
6480;DHT22;71753;48.772;9.148;2023-08-20T10:51:15;30.52;51.07
6480;DHT22;71753;48.772;9.148;2023-08-20T10:53:43;30.54;51.06
6480;DHT22;71753;48.772;9.148;2023-08-20T10:56:15;30.70;50.45
6480;DHT22;71753;48.772;9.148;2023-08-20T10:58:43;30.65;47.64
6480;DHT22;71753;48.772;9.148;2023-08-20T11:01:19;30.89;47.32
6480;DHT22;71753;48.772;9.148;2023-08-20T11:03:46;30.86;48.57
6480;DHT22;71753;48.772;9.148;2023-08-20T11:06:15;30.74;48.63
6480;DHT22;71753;48.772;9.148;2023-08-20T11:08:42;30.70;47.96
6480;DHT22;71753;48.772;9.148;2023-08-20T11:11:10;31.18;47.22
6480;DHT22;71753;48.772;9.148;2023-08-20T11:13:37;31.00;45.97
6480;DHT22;71753;48.772;9.148;2023-08-20T11:16:05;30.70;46.91
6480;DHT22;71753;48.772;9.148;2023-08-20T11:18:33;31.56;47.01
6480;DHT22;71753;48.772;9.148;2023-08-20T11:21:00;31.33;44.87
6480;DHT22;71753;48.772;9.148;2023-08-20T11:23:29;31.20;45.69
6480;DHT22;71753;48.772;9.148;2023-08-20T11:25:56;31.22;46.22
6480;DHT22;71753;48.772;9.148;2023-08-20T11:28:25;31.06;46.14
6480;DHT22;71753;48.772;9.148;2023-08-20T11:30:52;30.75;47.44
6480;DHT22;71753;48.772;9.148;2023-08-20T11:33:19;30.85;47.31
6480;DHT22;71753;48.772;9.148;2023-08-20T11:35:46;31.14;47.01
6480;DHT22;71753;48.772;9.148;2023-08-20T11:38:13;31.29;46.55
6480;DHT22;71753;48.772;9.148;2023-08-20T11:40:42;31.42;45.86
6480;DHT22;71753;48.772;9.148;2023-08-20T11:43:09;30.82;47.64
6480;DHT22;71753;48.772;9.148;2023-08-20T11:45:44;30.91;47.67
6480;DHT22;71753;48.772;9.148;2023-08-20T11:48:11;30.89;47.44
6480;DHT22;71753;48.772;9.148;2023-08-20T11:50:38;30.53;48.52
6480;DHT22;71753;48.772;9.148;2023-08-20T11:53:06;30.80;48.08
6480;DHT22;71753;48.772;9.148;2023-08-20T11:55:33;30.78;47.76
6480;DHT22;71753;48.772;9.148;2023-08-20T11:58:01;31.09;46.35
6480;DHT22;71753;48.772;9.148;2023-08-20T12:00:30;31.12;46.53
6480;DHT22;71753;48.772;9.148;2023-08-20T12:02:58;31.20;46.56
6480;DHT22;71753;48.772;9.148;2023-08-20T12:05:26;30.95;47.85
6480;DHT22;71753;48.772;9.148;2023-08-20T12:07:57;31.14;47.19
6480;DHT22;71753;48.772;9.148;2023-08-20T12:10:25;30.98;47.15
6480;DHT22;71753;48.772;9.148;2023-08-20T12:12:52;31.43;46.71
6480;DHT22;71753;48.772;9.148;2023-08-20T12:15:22;31.46;45.62
6480;DHT22;71753;48.772;9.148;2023-08-20T12:17:56;31.11;46.31
6480;DHT22;71753;48.772;9.148;2023-08-20T12:20:26;31.28;47.09
6480;DHT22;71753;48.772;9.148;2023-08-20T12:22:53;31.31;45.36
6480;DHT22;71753;48.772;9.148;2023-08-20T12:25:19;31.43;45.57
6480;DHT22;71753;48.772;9.148;2023-08-20T12:27:46;31.63;46.56
6480;DHT22;71753;48.772;9.148;2023-08-20T12:30:13;31.73;44.59
6480;DHT22;71753;48.772;9.148;2023-08-20T12:32:41;31.37;45.66
6480;DHT22;71753;48.772;9.148;2023-08-20T12:35:08;31.11;45.99
6480;DHT22;71753;48.772;9.148;2023-08-20T12:37:35;31.15;46.36
6480;DHT22;71753;48.772;9.148;2023-08-20T12:40:02;31.57;44.91
6480;DHT22;71753;48.772;9.148;2023-08-20T12:42:33;31.65;45.71
6480;DHT22;71753;48.772;9.148;2023-08-20T12:45:00;31.40;44.97
6480;DHT22;71753;48.772;9.148;2023-08-20T12:47:26;31.29;44.83
6480;DHT22;71753;48.772;9.148;2023-08-20T12:49:54;31.25;44.67
6480;DHT22;71753;48.772;9.148;2023-08-20T12:52:21;31.39;44.64
6480;DHT22;71753;48.772;9.148;2023-08-20T12:54:48;31.56;44.36
6480;DHT22;71753;48.772;9.148;2023-08-20T12:57:15;31.43;43.77
6480;DHT22;71753;48.772;9.148;2023-08-20T12:59:41;31.45;44.96
6480;DHT22;71753;48.772;9.148;2023-08-20T13:02:08;31.59;43.34
6480;DHT22;71753;48.772;9.148;2023-08-20T13:04:35;31.79;43.17
6480;DHT22;71753;48.772;9.148;2023-08-20T13:07:04;32.08;44.68
6480;DHT22;71753;48.772;9.148;2023-08-20T13:09:31;32.01;42.25
6480;DHT22;71753;48.772;9.148;2023-08-20T13:12:00;31.72;42.85
6480;DHT22;71753;48.772;9.148;2023-08-20T13:14:29;31.85;43.16
6480;DHT22;71753;48.772;9.148;2023-08-20T13:16:56;31.72;42.84
6480;DHT22;71753;48.772;9.148;2023-08-20T13:19:23;31.92;43.33
6480;DHT22;71753;48.772;9.148;2023-08-20T13:21:50;32.16;44.52
6480;DHT22;71753;48.772;9.148;2023-08-20T13:24:18;32.29;42.33
6480;DHT22;71753;48.772;9.148;2023-08-20T13:26:45;32.18;42.24
6480;DHT22;71753;48.772;9.148;2023-08-20T13:29:11;32.22;42.16
6480;DHT22;71753;48.772;9.148;2023-08-20T13:31:38;31.80;43.16
6480;DHT22;71753;48.772;9.148;2023-08-20T13:34:05;31.65;43.52
6480;DHT22;71753;48.772;9.148;2023-08-20T13:36:32;32.16;43.45
6480;DHT22;71753;48.772;9.148;2023-08-20T13:38:59;32.04;43.18
6480;DHT22;71753;48.772;9.148;2023-08-20T13:41:27;31.98;43.60
6480;DHT22;71753;48.772;9.148;2023-08-20T13:43:54;32.13;43.03
6480;DHT22;71753;48.772;9.148;2023-08-20T13:46:20;32.00;43.93
6480;DHT22;71753;48.772;9.148;2023-08-20T13:48:47;31.90;44.34
6480;DHT22;71753;48.772;9.148;2023-08-20T13:51:14;31.73;44.83
6480;DHT22;71753;48.772;9.148;2023-08-20T13:53:40;32.02;44.38
6480;DHT22;71753;48.772;9.148;2023-08-20T13:56:07;32.29;43.31
6480;DHT22;71753;48.772;9.148;2023-08-20T13:58:35;32.03;44.32
6480;DHT22;71753;48.772;9.148;2023-08-20T14:01:02;32.33;45.19
6480;DHT22;71753;48.772;9.148;2023-08-20T14:03:28;32.48;43.40
6480;DHT22;71753;48.772;9.148;2023-08-20T14:05:55;31.95;44.54
6480;DHT22;71753;48.772;9.148;2023-08-20T14:08:22;31.93;45.16
6480;DHT22;71753;48.772;9.148;2023-08-20T14:10:48;31.98;45.03
6480;DHT22;71753;48.772;9.148;2023-08-20T14:13:15;32.00;44.25
6480;DHT22;71753;48.772;9.148;2023-08-20T14:15:43;32.10;44.38
6480;DHT22;71753;48.772;9.148;2023-08-20T14:18:10;32.18;45.00
6480;DHT22;71753;48.772;9.148;2023-08-20T14:20:36;32.07;44.19
6480;DHT22;71753;48.772;9.148;2023-08-20T14:23:04;32.04;43.91
6480;DHT22;71753;48.772;9.148;2023-08-20T14:25:30;32.32;43.92
6480;DHT22;71753;48.772;9.148;2023-08-20T14:27:57;32.34;43.07
6480;DHT22;71753;48.772;9.148;2023-08-20T14:30:24;32.63;42.32
6480;DHT22;71753;48.772;9.148;2023-08-20T14:32:53;32.52;42.13
6480;DHT22;71753;48.772;9.148;2023-08-20T14:35:20;32.12;44.19
6480;DHT22;71753;48.772;9.148;2023-08-20T14:37:46;32.25;43.10
6480;DHT22;71753;48.772;9.148;2023-08-20T14:40:13;32.44;42.60
6480;DHT22;71753;48.772;9.148;2023-08-20T14:42:41;33.40;40.30
6480;DHT22;71753;48.772;9.148;2023-08-20T14:45:08;33.55;40.32
6480;DHT22;71753;48.772;9.148;2023-08-20T14:47:35;32.94;41.54
6480;DHT22;71753;48.772;9.148;2023-08-20T14:50:04;32.34;42.68
6480;DHT22;71753;48.772;9.148;2023-08-20T14:52:31;32.50;42.53
6480;DHT22;71753;48.772;9.148;2023-08-20T14:54:58;31.95;42.92
6480;DHT22;71753;48.772;9.148;2023-08-20T14:57:25;32.01;43.51
6480;DHT22;71753;48.772;9.148;2023-08-20T14:59:52;32.05;43.68
6480;DHT22;71753;48.772;9.148;2023-08-20T15:02:18;31.90;43.40
6480;DHT22;71753;48.772;9.148;2023-08-20T15:04:45;31.87;43.32
6480;DHT22;71753;48.772;9.148;2023-08-20T15:07:13;31.96;44.09
6480;DHT22;71753;48.772;9.148;2023-08-20T15:09:40;32.07;44.98
6480;DHT22;71753;48.772;9.148;2023-08-20T15:12:07;32.70;43.32
6480;DHT22;71753;48.772;9.148;2023-08-20T15:14:33;33.51;38.88
6480;DHT22;71753;48.772;9.148;2023-08-20T15:17:00;33.79;38.70
6480;DHT22;71753;48.772;9.148;2023-08-20T15:19:27;33.70;40.32
6480;DHT22;71753;48.772;9.148;2023-08-20T15:21:54;32.87;41.43
6480;DHT22;71753;48.772;9.148;2023-08-20T15:24:22;33.05;40.62
6480;DHT22;71753;48.772;9.148;2023-08-20T15:26:49;32.89;41.04
6480;DHT22;71753;48.772;9.148;2023-08-20T15:29:16;32.55;42.26
6480;DHT22;71753;48.772;9.148;2023-08-20T15:31:43;32.30;42.36
6480;DHT22;71753;48.772;9.148;2023-08-20T15:34:09;32.72;39.97
6480;DHT22;71753;48.772;9.148;2023-08-20T15:36:36;32.86;40.29
6480;DHT22;71753;48.772;9.148;2023-08-20T15:39:03;33.68;37.59
6480;DHT22;71753;48.772;9.148;2023-08-20T15:41:31;34.07;36.47
6480;DHT22;71753;48.772;9.148;2023-08-20T15:43:57;32.60;40.36
6480;DHT22;71753;48.772;9.148;2023-08-20T15:46:24;31.90;41.52